createdAt,value
2017-05-04T05:02:10.281Z,19.74
2017-05-04T05:04:36.953Z,28.02
2017-05-04T05:07:03.633Z,24.15
2017-05-04T05:09:30.334Z,25.53
2017-05-04T05:11:57.012Z,25.67
2017-05-04T05:14:23.694Z,24.00
2017-05-04T05:16:50.433Z,25.05
2017-05-04T05:19:17.134Z,20.17
2017-05-04T05:21:43.817Z,22.23
2017-05-04T05:24:10.537Z,19.62
2017-05-04T05:26:37.217Z,20.75
2017-05-04T05:29:03.900Z,20.20
2017-05-04T05:31:30.904Z,19.88
2017-05-04T05:33:57.595Z,20.33
2017-05-04T05:36:24.278Z,20.02
2017-05-04T05:38:50.973Z,20.06
2017-05-04T05:41:18.657Z,19.10
2017-05-04T05:43:45.355Z,19.74
2017-05-04T05:46:12.053Z,22.47
2017-05-04T05:48:38.733Z,17.78
2017-05-04T05:51:05.404Z,19.30
2017-05-04T05:53:32.090Z,18.68
2017-05-04T05:55:58.765Z,19.92
2017-05-04T05:58:25.443Z,17.84
2017-05-04T06:00:52.157Z,18.46
2017-05-04T06:03:18.861Z,21.16
2017-05-04T06:05:45.530Z,19.66
2017-05-04T06:08:12.212Z,20.14
2017-05-04T06:10:38.891Z,20.80
2017-05-04T06:13:05.565Z,17.26
2017-05-04T06:15:32.281Z,16.10
2017-05-04T06:17:58.956Z,20.04
2017-05-04T06:20:25.633Z,17.62
2017-05-04T06:22:52.334Z,16.82
2017-05-04T06:25:19.013Z,17.40
2017-05-04T06:27:45.681Z,18.32
2017-05-04T06:30:12.384Z,17.36
2017-05-04T06:32:39.054Z,16.54
2017-05-04T06:35:05.726Z,20.96
2017-05-04T06:37:32.425Z,16.78
2017-05-04T06:39:59.099Z,20.72
2017-05-04T06:42:25.786Z,23.38
2017-05-04T06:44:52.473Z,17.38
2017-05-04T06:47:19.161Z,27.38
2017-05-04T06:49:45.832Z,18.34
2017-05-04T06:52:12.531Z,23.56
2017-05-04T06:54:39.201Z,25.50
2017-05-04T06:57:05.870Z,22.68
2017-05-04T06:59:32.598Z,23.94
2017-05-04T07:01:59.270Z,22.42
2017-05-04T07:04:25.940Z,24.24
2017-05-04T07:06:52.649Z,24.18
2017-05-04T07:09:19.340Z,20.78
2017-05-04T07:11:46.008Z,23.12
2017-05-04T07:14:12.726Z,21.44
2017-05-04T07:16:39.401Z,23.76
2017-05-04T07:19:06.085Z,24.00
2017-05-04T07:21:32.776Z,22.02
2017-05-04T07:23:59.450Z,31.62
2017-05-04T07:26:26.124Z,19.00
2017-05-04T07:28:52.825Z,19.84
2017-05-04T07:31:19.494Z,17.74
2017-05-04T07:33:46.170Z,18.02
2017-05-04T07:36:12.888Z,18.96
2017-05-04T07:38:39.581Z,19.60
2017-05-04T07:41:06.250Z,17.44
2017-05-04T07:43:33.030Z,15.96
2017-05-04T07:45:59.719Z,15.92
2017-05-04T07:48:26.417Z,19.22
2017-05-04T07:50:53.126Z,17.78
2017-05-04T07:53:19.824Z,16.50
2017-05-04T07:55:46.492Z,16.64
2017-05-04T07:58:13.225Z,16.42
2017-05-04T08:00:39.901Z,16.88
2017-05-04T08:03:06.581Z,14.34
2017-05-04T08:05:33.282Z,21.26
2017-05-04T08:07:59.954Z,17.60
2017-05-04T08:10:26.646Z,16.74
2017-05-04T08:12:53.346Z,16.18
2017-05-04T08:15:20.013Z,18.06
2017-05-04T08:17:46.706Z,15.84
2017-05-04T08:20:13.401Z,17.90
2017-05-04T08:22:40.077Z,20.38
2017-05-04T08:25:06.745Z,22.36
2017-05-04T08:27:33.439Z,18.78
2017-05-04T08:30:00.114Z,15.70
2017-05-04T08:32:26.790Z,16.20
2017-05-04T08:34:53.509Z,16.12
2017-05-04T08:37:20.177Z,15.94
2017-05-04T08:39:46.858Z,17.04
2017-05-04T08:42:13.561Z,14.82
2017-05-04T08:44:40.237Z,14.76
2017-05-04T08:47:06.919Z,15.34
2017-05-04T08:49:33.640Z,18.20
2017-05-04T08:52:00.312Z,18.70
2017-05-04T08:54:26.992Z,17.92
2017-05-04T08:56:53.688Z,15.88
2017-05-04T08:59:20.369Z,19.36
2017-05-04T09:01:47.039Z,16.36
2017-05-04T09:04:13.729Z,15.06
2017-05-04T09:06:40.404Z,12.48
2017-05-04T09:09:07.081Z,13.98
2017-05-04T09:11:33.782Z,13.26
2017-05-04T09:14:00.458Z,14.28
2017-05-04T09:16:27.134Z,12.74
2017-05-04T09:18:53.826Z,12.40
2017-05-04T09:21:20.493Z,11.48
2017-05-04T09:23:47.169Z,13.32
2017-05-04T09:26:13.858Z,11.82
2017-05-04T09:28:40.526Z,10.48
2017-05-04T09:31:07.198Z,11.80
2017-05-04T09:33:33.887Z,10.04
2017-05-04T09:36:00.566Z,10.74
2017-05-04T09:38:27.396Z,9.26
2017-05-04T09:40:54.068Z,8.78
2017-05-04T09:43:20.759Z,7.56
2017-05-04T09:45:47.429Z,7.06
2017-05-04T09:48:14.087Z,9.68
2017-05-04T09:50:40.797Z,10.60
2017-05-04T09:53:07.470Z,8.08
2017-05-04T09:55:34.152Z,8.76
2017-05-04T09:58:00.850Z,8.50
2017-05-04T10:00:27.530Z,7.50
2017-05-04T10:02:54.213Z,8.02
2017-05-04T10:05:20.938Z,7.00
2017-05-04T10:07:47.603Z,6.64
2017-05-04T10:10:14.285Z,5.30
2017-05-04T10:12:40.971Z,6.62
2017-05-04T10:15:07.637Z,5.60
2017-05-04T10:17:34.302Z,6.86
2017-05-04T10:20:00.980Z,5.14
2017-05-04T10:22:27.641Z,8.10
2017-05-04T10:24:54.319Z,7.22
2017-05-04T10:27:21.013Z,6.58
2017-05-04T10:29:47.712Z,8.52
2017-05-04T10:32:14.397Z,6.86
2017-05-04T10:34:41.104Z,6.36
2017-05-04T10:37:07.769Z,5.98
2017-05-04T10:39:34.458Z,6.68
2017-05-04T10:42:01.246Z,8.26
2017-05-04T10:44:27.941Z,9.00
2017-05-04T10:46:54.603Z,8.34
2017-05-04T10:49:21.306Z,6.76
2017-05-04T10:51:47.969Z,7.46
2017-05-04T10:54:14.638Z,6.42
2017-05-04T10:56:41.324Z,7.52
2017-05-04T10:59:07.995Z,6.38
2017-05-04T11:01:34.661Z,6.50
2017-05-04T11:04:01.453Z,6.62
2017-05-04T11:06:28.118Z,6.96
2017-05-04T11:08:54.788Z,6.94
2017-05-04T11:11:21.492Z,5.90
2017-05-04T11:13:48.153Z,4.70
2017-05-04T11:16:14.844Z,5.54
2017-05-04T11:18:41.525Z,5.32
2017-05-04T11:21:08.220Z,5.58
2017-05-04T11:23:34.883Z,5.24
2017-05-04T11:26:01.561Z,6.60
2017-05-04T11:28:28.232Z,5.46
2017-05-04T11:30:54.898Z,6.00
2017-05-04T11:33:21.585Z,6.40
2017-05-04T11:35:48.248Z,7.66
2017-05-04T11:38:14.912Z,6.74
2017-05-04T11:40:41.646Z,7.26
2017-05-04T11:43:08.309Z,6.22
2017-05-04T11:45:34.968Z,7.06
2017-05-04T11:48:01.669Z,4.74
2017-05-04T11:50:28.329Z,3.96
2017-05-04T11:52:55.009Z,4.92
2017-05-04T11:55:21.702Z,4.82
2017-05-04T11:57:48.364Z,4.30
2017-05-04T12:00:15.032Z,4.20
2017-05-04T12:02:41.714Z,4.88
2017-05-04T12:05:08.421Z,4.82
2017-05-04T12:07:35.085Z,5.04
2017-05-04T12:10:01.773Z,5.10
2017-05-04T12:12:28.443Z,4.98
2017-05-04T12:14:55.104Z,7.60
2017-05-04T12:17:21.776Z,5.30
2017-05-04T12:19:48.443Z,6.72
2017-05-04T12:22:15.108Z,8.14
2017-05-04T12:24:41.797Z,5.42
2017-05-04T12:27:08.464Z,5.96
2017-05-04T12:29:35.125Z,6.26
2017-05-04T12:32:01.819Z,5.10
2017-05-04T12:34:28.478Z,5.34
2017-05-04T12:36:55.144Z,4.28
2017-05-04T12:39:21.846Z,5.34
2017-05-04T12:41:48.516Z,5.66
2017-05-04T12:44:15.182Z,5.78
2017-05-04T12:46:41.897Z,3.62
2017-05-04T12:49:08.568Z,4.14
2017-05-04T12:51:35.246Z,9.16
2017-05-04T12:54:01.932Z,5.60
2017-05-04T12:56:28.592Z,6.16
2017-05-04T12:58:55.280Z,5.30
2017-05-04T13:01:21.977Z,5.40
2017-05-04T13:03:48.646Z,6.94
2017-05-04T13:06:15.304Z,5.80
2017-05-04T13:08:41.984Z,5.86
2017-05-04T13:11:08.657Z,4.32
2017-05-04T13:13:35.333Z,4.54
2017-05-04T13:16:02.026Z,3.72
2017-05-04T13:18:28.690Z,4.00
2017-05-04T13:20:55.359Z,3.82
2017-05-04T13:23:22.050Z,3.62
2017-05-04T13:25:48.717Z,3.16
2017-05-04T13:28:15.382Z,2.86
2017-05-04T13:30:42.098Z,3.42
2017-05-04T13:33:08.766Z,3.12
2017-05-04T13:35:35.441Z,2.70
2017-05-04T13:38:02.168Z,3.54
2017-05-04T13:40:28.832Z,3.00
2017-05-04T13:42:55.497Z,3.52
2017-05-04T13:45:22.492Z,3.54
2017-05-04T13:47:49.454Z,3.50
2017-05-04T13:50:16.121Z,4.30
2017-05-04T13:52:42.990Z,5.24
2017-05-04T13:55:09.675Z,4.04
2017-05-04T13:57:36.337Z,4.38
2017-05-04T14:00:03.045Z,5.20
2017-05-04T14:02:29.708Z,4.54
2017-05-04T14:04:56.369Z,7.02
2017-05-04T14:07:23.351Z,4.44
2017-05-04T14:09:50.021Z,5.24
2017-05-04T14:12:16.715Z,4.08
2017-05-04T14:14:43.419Z,3.78
2017-05-04T14:17:10.115Z,6.32
2017-05-04T14:19:36.784Z,3.78
2017-05-04T14:22:03.478Z,3.58
2017-05-04T14:24:30.149Z,4.04
2017-05-04T14:26:56.812Z,4.08
2017-05-04T14:29:23.506Z,4.80
2017-05-04T14:31:50.174Z,3.24
2017-05-04T14:34:16.842Z,3.36
2017-05-04T14:36:43.565Z,4.02
2017-05-04T14:39:10.234Z,5.62
2017-05-04T14:41:36.908Z,3.94
2017-05-04T14:44:03.609Z,4.66
2017-05-04T14:46:30.293Z,4.06
2017-05-04T14:48:56.972Z,5.90
2017-05-04T14:51:23.700Z,4.22
2017-05-04T14:53:50.368Z,6.56
2017-05-04T14:56:17.048Z,5.23
2017-05-04T14:58:43.765Z,3.98
2017-05-04T15:01:10.429Z,4.10
2017-05-04T15:03:37.095Z,3.32
2017-05-04T15:06:03.793Z,3.44
2017-05-04T15:08:30.452Z,6.56
2017-05-04T15:10:58.461Z,3.72
2017-05-04T15:13:25.189Z,3.82
2017-05-04T15:15:51.882Z,3.56
2017-05-04T15:18:18.567Z,8.54
2017-05-04T15:20:45.226Z,5.04
2017-05-04T15:23:11.941Z,3.48
2017-05-04T15:25:38.601Z,3.24
2017-05-04T15:28:05.318Z,4.72
2017-05-04T15:30:31.980Z,5.74
2017-05-04T15:32:58.666Z,6.48
2017-05-04T15:35:25.356Z,3.38
2017-05-04T15:37:52.045Z,3.32
2017-05-04T15:40:18.740Z,3.12
2017-05-04T15:42:45.422Z,3.24
2017-05-04T15:45:12.081Z,3.90
2017-05-04T15:47:38.784Z,2.60
2017-05-04T15:50:05.677Z,3.68
2017-05-04T15:52:32.346Z,3.30
2017-05-04T15:54:59.058Z,3.92
2017-05-04T15:57:25.715Z,2.74
2017-05-04T15:59:52.424Z,3.22
2017-05-04T16:02:19.089Z,2.38
2017-05-04T16:04:46.052Z,2.68
2017-05-04T16:07:12.720Z,2.76
2017-05-04T16:09:39.412Z,2.82
2017-05-04T16:12:06.432Z,3.10
2017-05-04T16:14:33.563Z,3.58
2017-05-04T16:17:00.645Z,3.66
2017-05-04T16:19:28.024Z,3.58
2017-05-04T16:21:55.082Z,2.92
2017-05-04T16:24:22.411Z,3.72
2017-05-04T16:26:49.453Z,3.58
2017-05-04T16:29:16.531Z,3.04
2017-05-04T16:31:43.514Z,3.62
2017-05-04T16:34:10.217Z,4.54
2017-05-04T16:36:36.902Z,2.90
2017-05-04T16:39:04.372Z,2.46
2017-05-04T16:41:31.156Z,3.60
2017-05-04T16:43:57.822Z,3.72
2017-05-04T16:46:24.566Z,2.74
2017-05-04T16:48:51.581Z,2.20
2017-05-04T16:51:18.250Z,3.54
2017-05-04T16:53:44.916Z,4.62
2017-05-04T16:56:11.604Z,7.62
2017-05-04T16:58:39.284Z,2.38
2017-05-04T17:01:05.949Z,5.04
2017-05-04T17:03:32.631Z,3.88
2017-05-04T17:05:59.301Z,1.92
2017-05-04T17:08:25.964Z,2.10
2017-05-04T17:10:52.680Z,2.46
2017-05-04T17:13:19.354Z,7.22
2017-05-04T17:15:46.019Z,4.97
2017-05-04T17:18:12.715Z,3.70
2017-05-04T17:20:39.384Z,3.62
2017-05-04T17:23:06.071Z,5.14
2017-05-04T17:25:32.773Z,4.38
2017-05-04T17:27:59.458Z,2.44
2017-05-04T17:30:26.168Z,5.12
2017-05-04T17:32:52.958Z,2.80
2017-05-04T17:35:19.619Z,4.12
2017-05-04T17:37:46.333Z,3.10
2017-05-04T17:40:13.002Z,2.50
2017-05-04T17:42:39.729Z,1.96
2017-05-04T17:45:06.393Z,1.98
2017-05-04T17:47:33.065Z,1.40
2017-05-04T17:49:59.751Z,2.52
2017-05-04T17:52:26.448Z,2.34
2017-05-04T17:54:53.112Z,1.34
2017-05-04T17:57:19.788Z,1.78
2017-05-04T17:59:46.456Z,7.76
2017-05-04T18:02:13.124Z,1.80
2017-05-04T18:04:39.836Z,2.54
2017-05-04T18:07:06.501Z,2.14
2017-05-04T18:09:33.167Z,1.72
2017-05-04T18:11:59.884Z,4.66
2017-05-04T18:14:26.716Z,1.26
2017-05-04T18:16:53.432Z,1.28
2017-05-04T18:19:21.814Z,4.06
2017-05-04T18:21:48.691Z,1.70
2017-05-04T18:24:15.401Z,1.60
2017-05-04T18:26:42.085Z,2.34
2017-05-04T18:29:08.780Z,1.82
2017-05-04T18:31:35.479Z,2.50
2017-05-04T18:34:02.150Z,1.58
2017-05-04T18:36:28.944Z,2.94
2017-05-04T18:38:57.077Z,3.82
2017-05-04T18:41:25.140Z,3.86
2017-05-04T18:43:52.221Z,2.98
2017-05-04T18:46:18.949Z,8.02
2017-05-04T18:48:45.647Z,1.54
2017-05-04T18:51:12.321Z,1.88
2017-05-04T18:53:39.006Z,1.72
2017-05-04T18:56:05.680Z,1.10
2017-05-04T18:58:32.345Z,1.56
2017-05-04T19:00:59.051Z,2.20
2017-05-04T19:03:25.714Z,3.10
2017-05-04T19:05:52.400Z,2.52
2017-05-04T19:08:20.347Z,1.56
2017-05-04T19:10:47.174Z,2.10
2017-05-04T19:13:13.837Z,4.66
2017-05-04T19:15:40.549Z,6.92
2017-05-04T19:18:07.217Z,5.52
2017-05-04T19:20:33.899Z,2.16
2017-05-04T19:23:00.594Z,3.12
2017-05-04T19:25:27.275Z,3.00
2017-05-04T19:27:53.958Z,2.38
2017-05-04T19:30:20.627Z,2.32
2017-05-04T19:32:47.295Z,2.84
2017-05-04T19:35:13.990Z,3.54
2017-05-04T19:37:40.674Z,1.60
2017-05-04T19:40:07.333Z,1.66
2017-05-04T19:42:34.027Z,2.62
2017-05-04T19:45:00.697Z,2.00
2017-05-04T19:47:27.360Z,4.90
2017-05-04T19:49:54.045Z,2.50
2017-05-04T19:54:56.722Z,6.92
2017-05-04T19:57:23.436Z,3.24
2017-05-04T19:59:50.127Z,3.36
2017-05-04T20:02:16.817Z,2.28
2017-05-04T20:04:43.551Z,2.38
2017-05-04T20:07:10.236Z,2.02
2017-05-04T20:09:37.136Z,2.16
2017-05-04T20:12:03.839Z,1.82
2017-05-04T20:14:30.522Z,2.24
2017-05-04T20:16:57.209Z,8.76
2017-05-04T20:19:23.993Z,7.52
2017-05-04T20:21:50.705Z,5.14
2017-05-04T20:24:17.391Z,2.76
2017-05-04T20:26:44.106Z,3.12
2017-05-04T20:29:10.795Z,2.38
2017-05-04T20:31:37.492Z,3.48
2017-05-04T20:34:04.180Z,2.84
2017-05-04T20:36:30.858Z,2.98
2017-05-04T20:38:57.648Z,2.44
2017-05-04T20:41:24.599Z,2.68
2017-05-04T20:43:51.472Z,2.60
2017-05-04T20:46:18.163Z,5.76
2017-05-04T20:48:45.126Z,3.82
2017-05-04T20:51:11.813Z,1.94
2017-05-04T20:53:38.517Z,2.68
2017-05-04T20:56:05.313Z,2.36
2017-05-04T20:58:32.007Z,2.14
2017-05-04T21:00:58.701Z,4.96
2017-05-04T21:03:25.418Z,5.78
2017-05-04T21:05:52.285Z,3.30
2017-05-04T21:08:18.974Z,4.38
2017-05-04T21:10:45.664Z,3.90
2017-05-04T21:13:12.477Z,3.76
2017-05-04T21:15:39.156Z,5.78
2017-05-04T21:18:05.853Z,3.48
2017-05-04T21:20:32.546Z,4.30
2017-05-04T21:22:59.281Z,3.88
2017-05-04T21:25:25.982Z,3.32
2017-05-04T21:27:53.060Z,4.80
2017-05-04T21:30:21.054Z,2.52
2017-05-04T21:32:47.844Z,3.08
2017-05-04T21:35:16.393Z,2.92
2017-05-04T21:37:43.181Z,3.06
2017-05-04T21:40:09.914Z,2.76
2017-05-04T21:42:36.641Z,5.48
2017-05-04T21:45:03.361Z,3.46
2017-05-04T21:47:30.053Z,2.84
2017-05-04T21:49:57.135Z,5.20
2017-05-04T21:52:23.879Z,3.90
2017-05-04T21:54:50.584Z,5.02
2017-05-04T21:57:17.280Z,3.28
2017-05-04T21:59:43.958Z,3.00
2017-05-04T22:02:10.690Z,5.36
2017-05-04T22:04:37.401Z,3.96
2017-05-04T22:07:04.096Z,7.16
2017-05-04T22:09:32.045Z,4.52
2017-05-04T22:11:59.048Z,6.34
2017-05-04T22:14:25.720Z,3.64
2017-05-04T22:16:52.838Z,3.86
2017-05-04T22:19:19.642Z,2.82
2017-05-04T22:21:46.330Z,2.58
2017-05-04T22:24:13.049Z,2.50
2017-05-04T22:26:39.740Z,2.74
2017-05-04T22:29:06.448Z,3.78
2017-05-04T22:31:33.151Z,4.20
2017-05-04T22:33:59.824Z,3.30
2017-05-04T22:36:26.563Z,4.70
2017-05-04T22:38:53.252Z,5.06
2017-05-04T22:41:19.936Z,2.86
2017-05-04T22:43:46.609Z,3.62
2017-05-04T22:46:13.302Z,3.58
2017-05-04T22:48:39.982Z,3.66
2017-05-04T22:51:06.680Z,6.02
2017-05-04T22:53:33.362Z,5.12
2017-05-04T22:56:00.105Z,5.10
2017-05-04T22:58:26.809Z,4.14
2017-05-04T23:00:53.514Z,4.52
2017-05-04T23:03:20.200Z,4.64
2017-05-04T23:05:47.187Z,3.14
2017-05-04T23:08:13.874Z,3.34
2017-05-04T23:10:40.553Z,3.34
2017-05-04T23:13:07.257Z,5.52
2017-05-04T23:15:33.978Z,3.60
2017-05-04T23:18:00.698Z,3.54
2017-05-04T23:20:27.385Z,6.06
2017-05-04T23:22:54.077Z,4.32
2017-05-04T23:25:20.772Z,5.58
2017-05-04T23:27:47.454Z,4.24
2017-05-04T23:30:14.124Z,4.10
2017-05-04T23:32:41.026Z,5.22
2017-05-04T23:35:07.690Z,8.02
2017-05-04T23:37:34.390Z,5.04
2017-05-04T23:40:01.066Z,4.90
2017-05-04T23:42:27.938Z,3.35
2017-05-04T23:44:54.616Z,4.32
2017-05-04T23:47:21.310Z,2.84
2017-05-04T23:49:47.973Z,3.32
2017-05-04T23:52:14.685Z,2.72
2017-05-04T23:54:41.353Z,3.68
2017-05-04T23:57:08.055Z,4.44
2017-05-04T23:59:34.746Z,3.62
